Time;durP1;ratioP1;P1;durP2;ratioP2;P2;SDS_P1;SDS_P2;PMS_P1;PMS_P2;Temp;Humidity;BMP_temperature;BMP_pressure;BME280_temperature;BME280_humidity;BME280_pressure;Samples;Min_cycle;Max_cycle;Signal;HPM_P1;HPM_P2
2023/12/14 00:00:31;;;;;;;6.97;5.53;;;11.40;99.90;;;;;;4899981;29;20052;-52
2023/12/14 00:02:56;;;;;;;6.45;4.60;;;11.30;99.90;;;;;;4916100;29;20391;-54
2023/12/14 00:05:22;;;;;;;7.45;5.82;;;11.30;99.90;;;;;;4892850;29;20033;-52
2023/12/14 00:07:48;;;;;;;7.03;5.15;;;11.30;99.90;;;;;;4877912;29;20532;-53
2023/12/14 00:10:14;;;;;;;6.65;5.03;;;11.40;99.90;;;;;;4878358;29;20064;-52
2023/12/14 00:12:40;;;;;;;6.65;5.55;;;11.40;99.90;;;;;;4877475;29;20166;-53
2023/12/14 00:15:06;;;;;;;5.93;4.75;;;11.30;99.90;;;;;;4877928;29;20045;-52
2023/12/14 00:17:32;;;;;;;7.25;4.35;;;11.40;99.90;;;;;;4878030;29;20378;-55
2023/12/14 00:19:57;;;;;;;6.63;4.82;;;11.30;99.90;;;;;;4878163;29;20128;-55
2023/12/14 00:22:24;;;;;;;6.15;5.28;;;11.40;99.90;;;;;;4878142;29;20041;-53
2023/12/14 00:24:50;;;;;;;8.38;6.85;;;11.40;99.90;;;;;;4878024;29;20045;-52
2023/12/14 00:27:15;;;;;;;8.88;6.50;;;11.40;99.90;;;;;;4925566;29;20042;-54
2023/12/14 00:29:41;;;;;;;7.15;5.40;;;11.40;99.90;;;;;;4933520;29;20554;-52
2023/12/14 00:32:07;;;;;;;6.90;5.32;;;;;;;;;;4934552;29;20071;-51
2023/12/14 00:34:33;;;;;;;7.57;5.10;;;11.50;99.90;;;;;;4934443;29;20055;-54
2023/12/14 00:36:59;;;;;;;7.75;6.10;;;11.60;99.90;;;;;;4965010;28;20442;-52
2023/12/14 00:39:24;;;;;;;7.93;4.95;;;11.60;99.90;;;;;;4925202;28;20039;-50
2023/12/14 00:41:50;;;;;;;7.13;4.90;;;11.60;99.90;;;;;;4975119;28;20031;-52
2023/12/14 00:44:16;;;;;;;8.85;6.85;;;11.60;99.90;;;;;;4975008;28;20030;-50
2023/12/14 00:46:42;;;;;;;11.35;7.82;;;11.60;99.90;;;;;;4925027;28;20039;-50
2023/12/14 00:49:08;;;;;;;7.20;5.82;;;11.60;99.90;;;;;;4924867;28;20103;-54
2023/12/14 00:51:33;;;;;;;7.00;5.30;;;11.30;99.90;;;;;;4975101;28;20114;-54
2023/12/14 00:53:59;;;;;;;6.18;4.25;;;10.80;99.90;;;;;;4974971;28;20822;-55
2023/12/14 00:56:25;;;;;;;7.70;4.93;;;10.40;99.90;;;;;;4956660;28;20395;-53
2023/12/14 00:58:51;;;;;;;7.80;5.50;;;10.30;99.90;;;;;;4957327;28;20062;-49
2023/12/14 01:01:17;;;;;;;6.07;5.07;;;10.20;99.90;;;;;;4974771;28;20367;-54
2023/12/14 01:03:42;;;;;;;6.13;4.50;;;10.30;99.90;;;;;;4975091;28;20066;-53
2023/12/14 01:06:08;;;;;;;9.80;6.13;;;10.10;99.90;;;;;;4974846;28;20026;-52
2023/12/14 01:08:34;;;;;;;9.27;5.25;;;10.00;99.90;;;;;;4974743;28;20038;-54
2023/12/14 01:10:59;;;;;;;4.68;2.78;;;9.90;99.90;;;;;;4974913;28;20031;-53
2023/12/14 01:13:25;;;;;;;4.63;3.50;;;9.80;99.90;;;;;;4974448;28;20391;-48
2023/12/14 01:15:51;;;;;;;4.53;3.10;;;9.80;99.90;;;;;;4974449;28;20027;-51
2023/12/14 01:18:17;;;;;;;6.13;4.28;;;9.80;99.90;;;;;;4974742;28;20073;-51
2023/12/14 01:20:43;;;;;;;8.82;5.15;;;9.90;99.90;;;;;;4974378;28;20034;-50
2023/12/14 01:23:09;;;;;;;5.43;4.47;;;10.00;99.90;;;;;;4974473;28;20027;-52
2023/12/14 01:25:36;;;;;;;2.88;2.53;;;9.80;99.90;;;;;;4974622;28;20038;-50
2023/12/14 01:28:02;;;;;;;3.88;3.08;;;9.80;99.90;;;;;;4974639;28;20070;-52
2023/12/14 01:30:28;;;;;;;7.30;4.13;;;9.60;99.90;;;;;;4974198;28;20062;-54
2023/12/14 01:32:53;;;;;;;3.22;2.20;;;9.60;99.90;;;;;;4973783;28;20084;-52
2023/12/14 01:35:19;;;;;;;1.30;0.95;;;9.60;99.90;;;;;;4974612;28;20035;-52
2023/12/14 01:37:45;;;;;;;3.35;2.40;;;9.60;99.90;;;;;;4974365;28;20368;-52
2023/12/14 01:40:11;;;;;;;8.65;5.93;;;9.50;99.90;;;;;;4924036;28;20030;-50
2023/12/14 01:42:37;;;;;;;8.70;4.93;;;9.80;99.90;;;;;;4908256;28;20035;-52
2023/12/14 01:45:03;;;;;;;1.77;1.50;;;9.80;99.90;;;;;;4924096;28;20038;-50
2023/12/14 01:47:29;;;;;;;2.60;1.83;;;9.70;99.90;;;;;;4939723;28;20085;-53
2023/12/14 01:49:55;;;;;;;2.58;1.80;;;9.60;99.90;;;;;;4923899;28;20043;-51
2023/12/14 01:52:20;;;;;;;4.10;3.00;;;9.50;99.90;;;;;;4923958;28;20039;-49
2023/12/14 01:54:46;;;;;;;4.88;2.45;;;9.50;99.90;;;;;;4966524;28;20031;-54
2023/12/14 01:57:12;;;;;;;4.43;2.60;;;9.50;99.90;;;;;;4954540;29;20059;-53
2023/12/14 01:59:37;;;;;;;3.08;2.20;;;9.50;99.90;;;;;;4934043;29;20376;-51
2023/12/14 02:02:05;;;;;;;6.15;4.55;;;9.50;99.90;;;;;;4935232;29;20059;-51
2023/12/14 02:04:31;;;;;;;4.22;2.55;;;9.60;99.90;;;;;;4935452;29;20031;-52
2023/12/14 02:06:57;;;;;;;6.18;2.83;;;9.60;99.90;;;;;;4935253;29;20030;-53
2023/12/14 02:09:23;;;;;;;3.60;2.50;;;9.60;99.90;;;;;;4916950;29;20036;-51
2023/12/14 02:11:48;;;;;;;1.38;1.27;;;9.50;99.90;;;;;;4935231;29;20035;-53
2023/12/14 02:14:14;;;;;;;6.20;3.80;;;9.40;99.90;;;;;;4917018;29;20657;-53
2023/12/14 02:16:40;;;;;;;2.53;2.00;;;9.40;99.90;;;;;;4934875;29;20124;-52
2023/12/14 02:19:06;;;;;;;2.58;2.28;;;;;;;;;;4935062;29;20115;-50
2023/12/14 02:21:32;;;;;;;5.05;2.95;;;;;;;;;;4934752;29;20035;-49
2023/12/14 02:23:58;;;;;;;2.53;1.83;;;9.40;99.90;;;;;;4935407;29;20036;-53
2023/12/14 02:26:24;;;;;;;2.78;2.08;;;9.30;99.90;;;;;;4916948;29;20071;-50
2023/12/14 02:28:50;;;;;;;8.65;5.70;;;9.30;99.90;;;;;;4934909;29;20039;-52
2023/12/14 02:31:15;;;;;;;9.13;5.75;;;9.30;99.90;;;;;;4916858;29;20054;-51
2023/12/14 02:33:41;;;;;;;4.63;3.20;;;9.40;99.90;;;;;;4935120;29;20121;-49
2023/12/14 02:36:07;;;;;;;8.18;5.82;;;9.40;99.90;;;;;;4916856;29;20036;-50
2023/12/14 02:38:33;;;;;;;5.90;4.40;;;9.50;99.90;;;;;;4916556;29;20126;-51
2023/12/14 02:40:58;;;;;;;6.13;5.10;;;9.50;99.90;;;;;;4932595;29;20039;-50
2023/12/14 02:43:24;;;;;;;4.60;2.95;;;9.60;99.90;;;;;;4934534;29;20074;-52
2023/12/14 02:45:50;;;;;;;6.25;3.83;;;9.60;99.90;;;;;;4934796;29;20108;-49
2023/12/14 02:48:16;;;;;;;4.25;2.22;;;9.60;99.90;;;;;;4934584;29;20042;-49
2023/12/14 02:50:42;;;;;;;4.82;2.22;;;;;;;;;;4916595;29;20074;-50
2023/12/14 02:53:08;;;;;;;3.55;2.10;;;;;;;;;;4934118;29;20024;-52
2023/12/14 02:55:34;;;;;;;3.88;2.70;;;9.60;99.90;;;;;;4934334;29;20458;-52
2023/12/14 02:58:00;;;;;;;2.65;1.92;;;9.60;99.90;;;;;;4934540;29;20107;-49
2023/12/14 03:00:25;;;;;;;5.55;2.85;;;9.80;99.90;;;;;;4915960;29;20463;-52
2023/12/14 03:02:51;;;;;;;4.20;2.88;;;9.80;99.90;;;;;;4916493;29;20405;-49
2023/12/14 03:05:17;;;;;;;6.13;3.38;;;;;;;;;;4916706;29;20035;-49
2023/12/14 03:07:43;;;;;;;4.95;3.13;;;;;;;;;;4916515;29;20039;-49
2023/12/14 03:10:10;;;;;;;3.65;2.10;;;;;;;;;;4934430;29;20127;-52
2023/12/14 03:12:36;;;;;;;6.50;3.78;;;;;;;;;;4916388;29;20050;-54
2023/12/14 03:15:02;;;;;;;3.45;2.17;;;10.30;99.90;;;;;;4934462;29;20035;-52
2023/12/14 03:17:28;;;;;;;5.63;3.30;;;;;;;;;;4916516;29;20043;-48
2023/12/14 03:19:54;;;;;;;5.22;2.92;;;10.40;99.90;;;;;;4934588;29;20540;-51
2023/12/14 03:22:20;;;;;;;5.00;3.58;;;10.30;99.90;;;;;;4916401;29;20043;-51
2023/12/14 03:24:46;;;;;;;5.22;3.15;;;10.20;99.90;;;;;;4916267;29;20032;-50
2023/12/14 03:27:11;;;;;;;7.97;4.50;;;10.30;99.90;;;;;;4934253;29;20075;-54
2023/12/14 03:29:37;;;;;;;7.80;3.50;;;10.40;99.90;;;;;;4934319;29;20039;-52
2023/12/14 03:32:03;;;;;;;3.08;1.73;;;10.50;99.90;;;;;;4916332;29;20472;-53
2023/12/14 03:34:29;;;;;;;6.68;2.40;;;10.40;99.90;;;;;;4869483;29;20036;-50
2023/12/14 03:36:54;;;;;;;3.55;2.28;;;10.50;99.90;;;;;;4934083;29;20035;-52
2023/12/14 03:39:20;;;;;;;5.22;3.90;;;10.50;99.90;;;;;;4934478;29;20035;-53
2023/12/14 03:41:46;;;;;;;5.95;2.90;;;;;;;;;;4916052;29;20040;-54
2023/12/14 03:44:12;;;;;;;6.45;2.42;;;10.80;99.90;;;;;;4934053;29;20644;-49
2023/12/14 03:46:38;;;;;;;1.92;1.40;;;;;;;;;;4934694;29;20027;-50
2023/12/14 03:49:04;;;;;;;3.47;1.52;;;;;;;;;;4934328;29;20035;-52
2023/12/14 03:51:30;;;;;;;2.70;1.90;;;10.90;99.90;;;;;;4916233;29;20032;-53
2023/12/14 03:53:56;;;;;;;2.83;1.80;;;;;;;;;;4934216;29;20031;-51
2023/12/14 03:56:22;;;;;;;2.95;1.67;;;;;;;;;;4934383;29;20704;-49
2023/12/14 03:58:49;;;;;;;1.70;1.17;;;;;;;;;;4938535;29;20063;-51
2023/12/14 04:01:19;;;;;;;1.08;0.60;;;10.40;99.90;;;;;;4953170;29;20031;-51
2023/12/14 04:03:45;;;;;;;2.40;0.77;;;;;;;;;;4935456;29;20130;-51
2023/12/14 04:06:12;;;;;;;3.20;2.30;;;;;;;;;;4954497;28;20043;-49
2023/12/14 04:08:38;;;;;;;4.00;2.22;;;10.20;99.90;;;;;;4956296;29;20027;-50
2023/12/14 04:11:05;;;;;;;3.08;1.10;;;10.30;99.90;;;;;;4956757;29;20031;-49
2023/12/14 04:13:31;;;;;;;2.03;1.30;;;10.10;99.90;;;;;;4890871;29;20531;-51
2023/12/14 04:15:57;;;;;;;1.90;1.38;;;10.10;99.90;;;;;;4955718;29;20041;-50
2023/12/14 04:18:23;;;;;;;2.78;1.80;;;10.10;99.90;;;;;;4965510;28;20474;-51
2023/12/14 04:20:49;;;;;;;3.30;2.55;;;10.20;99.90;;;;;;4975506;28;20033;-51
2023/12/14 04:23:15;;;;;;;4.15;2.20;;;10.50;99.90;;;;;;4975544;28;20085;-49
2023/12/14 04:25:40;;;;;;;4.00;2.70;;;10.40;99.90;;;;;;4975399;28;20023;-51
2023/12/14 04:28:06;;;;;;;2.80;1.90;;;10.50;99.90;;;;;;4975543;28;20130;-54
2023/12/14 04:30:32;;;;;;;1.20;0.93;;;10.40;99.90;;;;;;4941026;28;20400;-52
2023/12/14 04:32:58;;;;;;;1.20;0.93;;;10.30;99.90;;;;;;4975265;28;20039;-52
2023/12/14 04:35:24;;;;;;;1.13;0.80;;;10.00;99.90;;;;;;4909424;28;20035;-53
2023/12/14 04:37:49;;;;;;;1.02;0.88;;;9.90;99.90;;;;;;4975243;28;20379;-50
2023/12/14 04:40:15;;;;;;;0.98;0.70;;;9.90;99.90;;;;;;4975091;28;20030;-51
2023/12/14 04:42:41;;;;;;;1.45;1.00;;;9.90;99.90;;;;;;4975159;28;20463;-51
2023/12/14 04:45:09;;;;;;;1.40;0.80;;;9.90;99.90;;;;;;4975036;28;20027;-51
2023/12/14 04:47:35;;;;;;;2.90;1.95;;;9.90;99.90;;;;;;4974969;28;20041;-55
2023/12/14 04:50:02;;;;;;;2.85;1.67;;;;;;;;;;4974811;28;20070;-52
2023/12/14 04:52:28;;;;;;;3.58;2.50;;;10.40;99.90;;;;;;4975212;28;20394;-50
2023/12/14 04:54:54;;;;;;;2.67;2.00;;;;;;;;;;4975138;28;20031;-50
2023/12/14 04:57:20;;;;;;;3.95;1.70;;;10.90;99.90;;;;;;4974777;28;20039;-54
2023/12/14 04:59:46;;;;;;;2.60;1.33;;;;;;;;;;4940308;28;20137;-53
2023/12/14 05:02:11;;;;;;;3.40;1.98;;;11.30;99.90;;;;;;4974776;28;20054;-52
2023/12/14 05:04:37;;;;;;;5.25;2.80;;;11.00;99.90;;;;;;4908883;28;20038;-52
2023/12/14 05:07:03;;;;;;;2.53;1.67;;;11.10;99.90;;;;;;4974957;28;20034;-50
2023/12/14 05:09:29;;;;;;;4.22;2.70;;;11.00;99.90;;;;;;4974390;28;20109;-52
2023/12/14 05:11:55;;;;;;;4.45;2.50;;;11.00;99.90;;;;;;4974637;28;20038;-53
2023/12/14 05:14:21;;;;;;;3.28;1.65;;;;;;;;;;4923480;28;20031;-50
2023/12/14 05:16:47;;;;;;;4.28;3.03;;;10.70;99.90;;;;;;4974158;28;20038;-55
2023/12/14 05:19:13;;;;;;;5.18;3.17;;;;;;;;;;4974297;28;20031;-52
2023/12/14 05:21:39;;;;;;;5.88;4.78;;;;;;;;;;4974536;28;20438;-52
2023/12/14 05:24:05;;;;;;;2.35;1.60;;;10.50;99.90;;;;;;4974848;28;20023;-53
2023/12/14 05:26:31;;;;;;;1.52;1.27;;;10.50;99.90;;;;;;4973506;28;20027;-50
2023/12/14 05:28:57;;;;;;;1.70;1.05;;;10.40;99.90;;;;;;4973169;28;20040;-51
2023/12/14 05:31:23;;;;;;;2.22;1.48;;;;;;;;;;4973906;28;20030;-51
2023/12/14 05:33:49;;;;;;;4.75;1.80;;;10.80;99.90;;;;;;4974258;28;20470;-52
2023/12/14 05:36:14;;;;;;;5.65;4.03;;;10.90;99.90;;;;;;4974198;28;20036;-50
2023/12/14 05:38:41;;;;;;;8.00;5.70;;;10.80;99.90;;;;;;4973875;28;20467;-52
2023/12/14 05:41:07;;;;;;;16.00;11.82;;;10.90;99.90;;;;;;4974347;28;20494;-53
2023/12/14 05:43:32;;;;;;;24.73;15.32;;;10.80;99.90;;;;;;4972998;28;20035;-49
2023/12/14 05:45:58;;;;;;;29.92;22.17;;;10.70;99.90;;;;;;4938812;28;20035;-48
2023/12/14 05:48:26;;;;;;;30.02;20.85;;;10.80;99.90;;;;;;4955342;28;20110;-51
2023/12/14 05:50:52;;;;;;;24.55;17.35;;;10.70;99.90;;;;;;4973454;28;20432;-50
2023/12/14 05:53:18;;;;;;;22.00;16.10;;;10.80;99.90;;;;;;4955404;28;20117;-53
2023/12/14 05:55:44;;;;;;;20.67;15.82;;;10.80;99.90;;;;;;4973313;28;20023;-50
2023/12/14 05:58:10;;;;;;;30.95;24.33;;;10.90;99.90;;;;;;4973185;28;20034;-50
2023/12/14 06:00:36;;;;;;;32.65;25.33;;;10.90;99.90;;;;;;4937788;28;20470;-50
2023/12/14 06:03:02;;;;;;;32.17;23.88;;;11.00;99.90;;;;;;4973248;28;20541;-49
2023/12/14 06:05:28;;;;;;;29.23;21.55;;;11.10;99.90;;;;;;4971955;28;20065;-51
2023/12/14 06:07:54;;;;;;;33.00;23.77;;;11.10;99.90;;;;;;4972882;28;20066;-51
2023/12/14 06:10:21;;;;;;;32.40;23.67;;;;;;;;;;4972925;28;20030;-49
2023/12/14 06:12:47;;;;;;;33.85;24.63;;;;;;;;;;4920039;29;20043;-49
2023/12/14 06:15:13;;;;;;;34.22;28.00;;;12.00;99.90;;;;;;4954701;29;20374;-51
2023/12/14 06:17:41;;;;;;;44.33;32.80;;;11.50;99.90;;;;;;4954161;29;20099;-51
2023/12/14 06:20:10;;;;;;;48.60;35.70;;;11.50;99.90;;;;;;4954266;29;20547;-49
2023/12/14 06:22:39;;;;;;;46.65;32.20;;;11.60;99.90;;;;;;4972173;28;20478;-48
2023/12/14 06:25:06;;;;;;;60.45;43.67;;;;;;;;;;4973470;28;20053;-52
2023/12/14 06:27:31;;;;;;;68.30;49.55;;;11.50;99.90;;;;;;4971814;28;20526;-51
2023/12/14 06:29:57;;;;;;;77.53;56.38;;;11.60;99.90;;;;;;4972564;28;20074;-50
2023/12/14 06:32:23;;;;;;;70.78;53.38;;;11.60;99.90;;;;;;4973704;28;20407;-50
2023/12/14 06:34:49;;;;;;;76.05;57.42;;;11.70;99.90;;;;;;4973245;28;20027;-49
2023/12/14 06:37:15;;;;;;;83.05;67.07;;;11.70;99.90;;;;;;4973173;28;20057;-51
2023/12/14 06:39:41;;;;;;;84.72;65.05;;;11.60;99.90;;;;;;4973396;28;20022;-53
2023/12/14 06:42:07;;;;;;;74.97;53.95;;;11.70;99.90;;;;;;4954540;28;20039;-54
2023/12/14 06:44:33;;;;;;;73.03;56.20;;;;;;;;;;4972956;28;20363;-53
2023/12/14 06:46:59;;;;;;;74.97;57.50;;;11.70;99.90;;;;;;4973287;28;20387;-50
2023/12/14 06:49:25;;;;;;;65.25;51.28;;;11.90;99.90;;;;;;4973282;28;20039;-49
2023/12/14 06:51:51;;;;;;;54.58;43.05;;;12.10;99.90;;;;;;4973008;28;20121;-54
2023/12/14 06:54:17;;;;;;;40.88;30.95;;;12.10;99.90;;;;;;4973373;28;20185;-51
2023/12/14 06:56:43;;;;;;;34.67;27.85;;;12.10;99.90;;;;;;4938627;28;20047;-51
2023/12/14 06:59:08;;;;;;;32.47;26.00;;;12.00;99.90;;;;;;4972849;28;20065;-50
2023/12/14 07:01:34;;;;;;;25.45;19.67;;;12.00;99.90;;;;;;4972789;28;20119;-50
2023/12/14 07:04:02;;;;;;;21.45;17.13;;;;;;;;;;4938981;28;20031;-51
2023/12/14 07:06:29;;;;;;;19.83;15.50;;;11.80;99.90;;;;;;4973075;28;20066;-53
2023/12/14 07:08:55;;;;;;;22.75;17.48;;;11.60;99.90;;;;;;4972785;28;20485;-53
2023/12/14 07:11:21;;;;;;;21.98;18.13;;;11.60;99.90;;;;;;4938974;28;20126;-49
2023/12/14 07:13:47;;;;;;;380.13;133.13;;;11.60;99.90;;;;;;4972817;28;20038;-52
2023/12/14 07:16:13;;;;;;;148.80;103.55;;;11.60;99.90;;;;;;4970792;28;20035;-49
2023/12/14 07:18:41;;;;;;;121.78;67.90;;;11.70;99.90;;;;;;4972869;28;20027;-52
2023/12/14 07:21:07;;;;;;;534.35;306.27;;;11.70;99.90;;;;;;4973096;28;20470;-52
2023/12/14 07:23:33;;;;;;;354.13;177.88;;;11.30;99.90;;;;;;4954693;28;20739;-50
2023/12/14 07:26:00;;;;;;;347.98;187.45;;;11.30;99.90;;;;;;4972713;28;20050;-53
2023/12/14 07:28:26;;;;;;;487.63;296.00;;;11.00;99.90;;;;;;4971093;28;20027;-54
2023/12/14 07:30:51;;;;;;;367.50;190.90;;;11.00;99.90;;;;;;4971816;28;20031;-50
2023/12/14 07:33:17;;;;;;;232.45;128.95;;;11.20;99.90;;;;;;4972239;28;20046;-54
2023/12/14 07:35:43;;;;;;;142.88;89.15;;;;;;;;;;4971991;28;20507;-53
2023/12/14 07:38:12;;;;;;;269.05;177.55;;;11.50;99.90;;;;;;4972612;28;20070;-52
2023/12/14 07:40:39;;;;;;;43.80;34.40;;;11.60;99.90;;;;;;4975687;28;20026;-51
2023/12/14 07:43:05;;;;;;;41.80;33.05;;;11.50;99.90;;;;;;4976166;28;20035;-53
2023/12/14 07:45:31;;;;;;;18.20;13.82;;;;;;;;;;4941986;28;20080;-51
2023/12/14 07:47:57;;;;;;;27.88;22.08;;;11.50;99.90;;;;;;4973951;28;20061;-48
2023/12/14 07:50:23;;;;;;;32.10;27.77;;;;;;;;;;4976005;28;20532;-53
2023/12/14 07:52:50;;;;;;;23.17;20.52;;;;;;;;;;4976523;28;20442;-51
2023/12/14 07:55:17;;;;;;;15.05;11.98;;;;;;;;;;4974098;28;20097;-53
2023/12/14 07:57:43;;;;;;;16.30;11.52;;;;;;;;;;4976297;28;20086;-52
2023/12/14 08:00:10;;;;;;;12.90;10.75;;;;;;;;;;4926077;28;20082;-52
2023/12/14 08:02:36;;;;;;;15.25;12.82;;;;;;;;;;4941762;28;20061;-50
2023/12/14 08:05:02;;;;;;;17.77;12.68;;;11.50;99.90;;;;;;4975910;28;20027;-54
2023/12/14 08:07:29;;;;;;;16.23;12.40;;;11.30;99.90;;;;;;4909987;28;20509;-50
2023/12/14 08:09:55;;;;;;;17.77;13.23;;;11.30;99.90;;;;;;4941883;28;20054;-55
2023/12/14 08:12:22;;;;;;;23.90;17.35;;;11.10;99.90;;;;;;4975707;28;20063;-48
2023/12/14 08:14:48;;;;;;;18.65;14.40;;;11.10;99.90;;;;;;4973773;28;20058;-50
2023/12/14 08:17:14;;;;;;;20.08;15.70;;;10.90;99.90;;;;;;4955626;28;20069;-56
2023/12/14 08:19:39;;;;;;;24.73;19.65;;;10.90;99.90;;;;;;4975267;28;20034;-53
2023/12/14 08:22:07;;;;;;;24.95;20.48;;;10.90;99.90;;;;;;4975444;28;20478;-47
2023/12/14 08:24:33;;;;;;;25.45;18.85;;;10.90;99.90;;;;;;4975291;28;20482;-52
2023/12/14 08:26:58;;;;;;;20.63;17.23;;;10.80;99.90;;;;;;4973070;28;20023;-52
2023/12/14 08:29:24;;;;;;;18.38;15.65;;;10.80;99.90;;;;;;4975151;28;20042;-48
2023/12/14 08:31:50;;;;;;;20.27;17.35;;;10.80;99.90;;;;;;4970193;28;20101;-51
2023/12/14 08:34:16;;;;;;;21.25;16.38;;;10.80;99.90;;;;;;4935912;28;20073;-47
2023/12/14 08:36:41;;;;;;;14.02;11.20;;;10.80;99.90;;;;;;4970308;28;20034;-53
2023/12/14 08:39:07;;;;;;;10.95;9.30;;;10.70;99.90;;;;;;4971865;28;20030;-60
2023/12/14 08:41:33;;;;;;;12.95;9.52;;;10.60;99.90;;;;;;4971605;28;20032;-49
2023/12/14 08:43:58;;;;;;;10.90;8.05;;;10.60;99.90;;;;;;4967733;28;20109;-50
2023/12/14 08:46:24;;;;;;;8.35;7.50;;;10.60;99.90;;;;;;4963317;28;20178;-50
2023/12/14 08:48:50;;;;;;;11.70;10.50;;;10.60;99.90;;;;;;4971498;28;20026;-51
2023/12/14 08:51:17;;;;;;;11.05;9.38;;;10.60;99.90;;;;;;4938488;28;20034;-53
2023/12/14 08:53:43;;;;;;;23.08;20.25;;;10.60;99.90;;;;;;4975854;28;20117;-50
2023/12/14 08:56:09;;;;;;;9.07;7.90;;;10.70;99.90;;;;;;4975201;28;20386;-48
2023/12/14 08:58:35;;;;;;;16.13;13.68;;;10.70;99.90;;;;;;4974645;28;20058;-50
2023/12/14 09:01:01;;;;;;;10.23;9.02;;;10.80;99.90;;;;;;4974947;28;20422;-49
2023/12/14 09:03:27;;;;;;;6.75;5.57;;;10.60;99.90;;;;;;4974125;28;20023;-52
2023/12/14 09:05:53;;;;;;;5.70;5.00;;;10.80;99.90;;;;;;4971302;28;20062;-54
2023/12/14 09:08:18;;;;;;;6.70;4.65;;;10.90;99.90;;;;;;4899773;28;20086;-52
2023/12/14 09:10:44;;;;;;;6.25;5.25;;;10.80;99.90;;;;;;4974681;28;20398;-52
2023/12/14 09:13:10;;;;;;;7.30;6.20;;;10.90;99.90;;;;;;4971562;28;20043;-51
2023/12/14 09:15:36;;;;;;;8.93;7.80;;;11.00;99.90;;;;;;4956349;28;20034;-52
2023/12/14 09:18:02;;;;;;;9.82;7.22;;;11.00;99.90;;;;;;4974315;28;20039;-51
2023/12/14 09:20:28;;;;;;;6.53;5.50;;;11.00;99.90;;;;;;4974445;28;20033;-55
2023/12/14 09:22:54;;;;;;;7.45;5.78;;;11.00;99.90;;;;;;4972386;28;20114;-54
2023/12/14 09:25:20;;;;;;;8.75;7.20;;;11.00;99.90;;;;;;4974988;28;20430;-49
2023/12/14 09:27:46;;;;;;;7.68;6.18;;;11.00;99.90;;;;;;4974378;28;20042;-48
2023/12/14 09:30:12;;;;;;;6.53;5.45;;;11.10;99.90;;;;;;4974215;28;20030;-48
2023/12/14 09:32:39;;;;;;;8.52;5.80;;;11.00;99.90;;;;;;4974437;28;20109;-51
2023/12/14 09:35:06;;;;;;;6.20;5.60;;;11.00;99.90;;;;;;4974262;28;20030;-52
2023/12/14 09:37:32;;;;;;;8.00;7.07;;;11.00;99.90;;;;;;4967825;28;20114;-49
2023/12/14 09:39:57;;;;;;;5.30;4.40;;;11.00;99.90;;;;;;4952611;28;20122;-54
2023/12/14 09:42:23;;;;;;;6.78;5.47;;;11.10;99.90;;;;;;4964821;28;20494;-53
2023/12/14 09:44:52;;;;;;;7.35;5.43;;;11.20;99.90;;;;;;4921610;28;20041;-48
2023/12/14 09:47:18;;;;;;;6.97;5.38;;;11.10;99.90;;;;;;4943131;28;20039;-49
2023/12/14 09:49:45;;;;;;;9.35;6.03;;;11.10;99.90;;;;;;4973215;28;20050;-52
2023/12/14 09:52:11;;;;;;;5.80;4.57;;;11.10;99.90;;;;;;4939147;28;20073;-51
2023/12/14 09:54:37;;;;;;;6.13;4.07;;;11.10;99.90;;;;;;4973933;28;20085;-50
2023/12/14 09:57:03;;;;;;;5.32;4.80;;;11.10;99.90;;;;;;4966780;28;20101;-50
2023/12/14 09:59:29;;;;;;;8.30;7.57;;;11.10;99.90;;;;;;4965611;28;20078;-56
2023/12/14 10:02:12;;;;;;;4.95;4.15;;;11.00;99.90;;;;;;4951109;28;20129;-49
2023/12/14 10:04:38;;;;;;;4.70;4.13;;;11.10;99.90;;;;;;4936236;28;20491;-49
2023/12/14 10:07:06;;;;;;;5.40;4.18;;;11.10;99.90;;;;;;4955337;28;20035;-48
2023/12/14 10:09:33;;;;;;;6.43;4.57;;;11.10;99.90;;;;;;4973394;28;20047;-48
2023/12/14 10:12:05;;;;;;;6.50;4.90;;;11.10;99.90;;;;;;4973964;28;20031;-45
2023/12/14 10:14:31;;;;;;;7.45;5.38;;;11.20;99.90;;;;;;4973575;28;20039;-49
2023/12/14 10:16:58;;;;;;;30.48;20.38;;;11.30;99.90;;;;;;4973495;28;20031;-46
2023/12/14 10:19:24;;;;;;;7.32;5.20;;;11.20;99.90;;;;;;4971389;28;20106;-49
2023/12/14 10:21:50;;;;;;;8.68;6.43;;;11.20;99.90;;;;;;4954989;28;20042;-53
2023/12/14 10:24:17;;;;;;;6.32;4.68;;;11.20;99.90;;;;;;4971363;28;20490;-54
2023/12/14 10:26:47;;;;;;;16.65;9.23;;;11.10;99.90;;;;;;4973270;28;20663;-52
2023/12/14 10:29:13;;;;;;;11.10;6.38;;;11.20;99.90;;;;;;4973655;28;20049;-50
2023/12/14 10:31:39;;;;;;;8.60;6.53;;;11.20;99.90;;;;;;4973463;28;20478;-52
2023/12/14 10:34:06;;;;;;;13.05;8.38;;;11.20;99.90;;;;;;4875937;28;20061;-52
2023/12/14 10:36:32;;;;;;;12.98;8.50;;;11.10;99.90;;;;;;4972724;28;20023;-51
2023/12/14 10:39:00;;;;;;;7.47;4.95;;;11.30;99.90;;;;;;4971340;28;20046;-52
2023/12/14 10:41:29;;;;;;;7.50;6.25;;;11.00;99.90;;;;;;4973133;28;20061;-52
2023/12/14 10:43:56;;;;;;;10.73;9.13;;;11.00;99.90;;;;;;4973436;28;20101;-50
2023/12/14 10:46:23;;;;;;;9.98;6.28;;;11.00;99.90;;;;;;4973377;28;20038;-50
2023/12/14 10:48:53;;;;;;;9.32;7.75;;;10.90;99.90;;;;;;4973158;28;20035;-52
2023/12/14 10:51:21;;;;;;;9.32;6.95;;;10.90;99.90;;;;;;4973149;28;21236;-51
2023/12/14 10:53:48;;;;;;;9.05;7.70;;;11.00;99.90;;;;;;4972927;28;20394;-53
2023/12/14 10:56:16;;;;;;;8.73;7.50;;;11.00;99.90;;;;;;4973088;28;20031;-53
2023/12/14 10:58:52;;;;;;;9.60;7.60;;;;;;;;;;4972712;28;20137;-53
2023/12/14 11:01:20;;;;;;;8.27;6.72;;;;;;;;;;4973137;28;20109;-50
2023/12/14 11:03:47;;;;;;;9.05;6.85;;;;;;;;;;4972931;28;20034;-49
2023/12/14 11:06:29;;;;;;;20.85;13.57;;;11.50;99.90;;;;;;4970828;28;20052;-54
2023/12/14 11:08:58;;;;;;;9.75;6.63;;;11.50;99.90;;;;;;4972755;28;20494;-52
2023/12/14 11:11:28;;;;;;;16.48;9.77;;;11.40;99.90;;;;;;4973260;28;20558;-52
2023/12/14 11:13:54;;;;;;;7.15;5.68;;;11.40;99.90;;;;;;4975584;28;20062;-53
2023/12/14 11:16:24;;;;;;;6.57;5.88;;;11.40;99.90;;;;;;4973130;28;20100;-48
2023/12/14 11:19:22;;;;;;;12.90;8.52;;;11.40;99.90;;;;;;4974702;28;20034;-54
2023/12/14 11:21:59;;;;;;;8.13;6.78;;;11.40;99.90;;;;;;4976826;28;20101;-51
2023/12/14 11:24:25;;;;;;;8.38;6.72;;;11.30;99.90;;;;;;4976689;28;20079;-51
2023/12/14 11:26:52;;;;;;;8.38;7.10;;;;;;;;;;4976288;28;20137;-52
2023/12/14 11:29:21;;;;;;;7.50;6.53;;;;;;;;;;4976660;28;20066;-51
2023/12/14 11:31:48;;;;;;;8.40;6.75;;;;;;;;;;4976383;28;20042;-52
2023/12/14 11:34:17;;;;;;;8.68;7.28;;;;;;;;;;4976639;28;20656;-50
2023/12/14 11:36:45;;;;;;;12.13;8.38;;;11.50;99.90;;;;;;4958026;28;20133;-55
2023/12/14 11:39:11;;;;;;;24.27;15.15;;;11.50;99.90;;;;;;4976499;28;20062;-50
2023/12/14 11:41:38;;;;;;;15.88;14.20;;;11.50;99.90;;;;;;4976493;28;20490;-50
2023/12/14 11:44:05;;;;;;;11.63;10.40;;;11.60;99.90;;;;;;4976429;28;20040;-52
2023/12/14 11:46:31;;;;;;;8.88;7.35;;;11.30;99.90;;;;;;4976233;28;20069;-50
2023/12/14 11:49:03;;;;;;;10.38;7.70;;;11.20;99.90;;;;;;4976182;28;20402;-54
2023/12/14 11:51:30;;;;;;;8.68;7.68;;;11.20;99.90;;;;;;4976408;28;20043;-50
2023/12/14 11:54:00;;;;;;;9.32;8.02;;;11.20;99.90;;;;;;4976368;28;20039;-52
2023/12/14 11:56:26;;;;;;;11.63;8.60;;;;;;;;;;4976208;28;20034;-55
2023/12/14 11:58:54;;;;;;;10.55;8.80;;;;;;;;;;4975821;28;20065;-52
2023/12/14 12:01:21;;;;;;;13.15;8.73;;;;;;;;;;4975951;28;20050;-53
2023/12/14 12:03:47;;;;;;;10.82;8.40;;;13.00;99.90;;;;;;4976088;28;20494;-51
2023/12/14 12:06:30;;;;;;;10.95;8.88;;;11.50;99.90;;;;;;4976030;28;20042;-51
2023/12/14 12:08:56;;;;;;;8.85;6.95;;;11.50;99.90;;;;;;4972778;28;20054;-54
2023/12/14 12:11:24;;;;;;;10.15;7.40;;;11.50;99.90;;;;;;4973188;28;20038;-53
2023/12/14 12:13:55;;;;;;;6.43;5.50;;;11.50;99.90;;;;;;4958308;28;20402;-53
2023/12/14 12:16:22;;;;;;;6.68;5.22;;;11.50;99.90;;;;;;4975710;28;20039;-48
2023/12/14 12:18:50;;;;;;;9.52;6.65;;;11.40;99.90;;;;;;4975710;28;20086;-51
2023/12/14 12:21:16;;;;;;;16.33;10.43;;;11.40;99.90;;;;;;4975683;28;20475;-49
2023/12/14 12:23:42;;;;;;;10.80;7.43;;;11.40;99.90;;;;;;4975338;28;20066;-47
2023/12/14 12:26:08;;;;;;;14.10;8.82;;;11.30;99.90;;;;;;4973888;28;20093;-46
2023/12/14 12:28:34;;;;;;;10.80;8.13;;;11.40;99.90;;;;;;4975543;28;20023;-47
2023/12/14 12:31:00;;;;;;;16.00;10.23;;;11.10;99.90;;;;;;4975509;28;20041;-46
2023/12/14 12:33:26;;;;;;;23.35;16.00;;;11.10;99.90;;;;;;4975654;28;20474;-47
2023/12/14 12:35:52;;;;;;;23.77;13.80;;;11.10;99.90;;;;;;4975405;28;20039;-50
2023/12/14 12:38:21;;;;;;;9.13;7.53;;;11.20;99.90;;;;;;4975376;28;20129;-48
2023/12/14 12:40:47;;;;;;;9.73;7.60;;;11.20;99.90;;;;;;4975459;28;20040;-47
2023/12/14 12:43:16;;;;;;;16.13;11.77;;;;;;;;;;4975355;28;20038;-50
2023/12/14 12:45:42;;;;;;;11.05;9.95;;;11.30;99.90;;;;;;4975346;28;20059;-48
2023/12/14 12:48:08;;;;;;;18.63;16.30;;;11.40;99.90;;;;;;4975123;28;20042;-48
2023/12/14 12:50:35;;;;;;;18.83;16.80;;;11.40;99.90;;;;;;4975173;28;20046;-49
2023/12/14 12:53:00;;;;;;;14.60;13.02;;;11.40;99.90;;;;;;4975431;28;20034;-47